AC5JC-1 Weather Reports


Display with metric or nautical units.
time (UTC)temp
F
wind
direction
speed
MPH
gust
MPH
rain 1hr
in
rain 24hr
in
rain mn
in
humidity
%
barometer
mb
20181216043031 50 273 0.0 2.0 0.00 0.00 0.00 37 1045.3
20181216042039 49 272 0.0 2.0 0.00 0.00 0.00 31 1045.3
20181216041030 48 314 0.0 4.0 0.00 0.00 0.00 36 1045.3
20181216040031 48 0.0 0.0 0.00 0.00 0.00 40 1045.3
20181216035030 48 277 0.0 2.0 0.00 0.00 0.00 45 1045.5
20181216034022 48 0.0 0.0 0.00 0.00 0.00 50 1045.5
20181216033030 48 0.0 0.0 0.00 0.00 0.00 49 1045.6
20181216032022 48 0.0 0.0 0.00 0.00 0.00 47 1045.6
20181216031021 48 0.0 0.0 0.00 0.00 0.00 47 1045.1
20181216030039 48 277 0.0 2.0 0.00 0.00 0.00 47 1045.4
20181216025029 49 0.0 0.0 0.00 0.00 0.00 47 1045.4
20181216024030 49 0.0 0.0 0.00 0.00 0.00 49 1045.4
20181216022558 50 0.0 0.0 0.00 0.00 0.00 47 1045.0
20181216021559 50 277 0.0 2.0 0.00 0.00 0.00 47 1045.0
20181216020558 50 0.0 0.0 0.00 0.00 0.00 46 1044.6
20181216015549 51 277 0.0 2.0 0.00 0.00 0.00 44 1044.7
20181216014556 52 0.0 0.0 0.00 0.00 0.00 49 1044.5
20181216013550 53 0.0 0.0 0.00 0.00 0.00 45 1044.5
20181216012549 54 0.0 0.0 0.00 0.00 0.00 34 1044.2
20181216011551 55 277 0.0 2.0 0.00 0.00 0.00 29 1044.2
20181216010542 55 294 0.0 2.0 0.00 0.00 0.00 29 1044.1
20181216005550 55 280 0.0 2.0 0.00 0.00 0.00 27 1043.8
20181216004541 54 0.0 0.0 0.00 0.00 0.00 27 1043.5
20181216003540 55 0.0 0.0 0.00 0.00 0.00 27 1043.5
20181216002541 55 0.0 0.0 0.00 0.00 0.00 28 1043.7
20181216001534 55 0.0 0.0 0.00 0.00 0.00 29 1043.6
20181216000541 56 0.0 0.0 0.00 0.00 0.00 28 1043.4
20181215235534 56 0.0 0.0 0.00 0.00 0.00 28 1043.4
20181215234533 57 0.0 0.0 0.00 0.00 0.00 27 1043.2
20181215233533 57 0.0 0.0 0.00 0.00 0.00 27 1043.1
20181215232525 58 0.0 0.0 0.00 0.00 0.00 28 1043.0
20181215231536 59 0.0 0.0 0.00 0.00 0.00 27 1042.7
20181215230524 60 0.0 0.0 0.00 0.00 0.00 26 1042.7
20181215225525 60 287 0.0 2.0 0.00 0.00 0.00 25 1043.1
20181215224054 60 279 0.0 2.0 0.00 0.00 0.00 26 1042.7
20181215223056 61 300 1.0 4.0 0.00 0.00 0.00 28 1042.7
20181215222053 61 285 1.0 2.0 0.00 0.00 0.00 23 1042.6
20181215221045 61 295 0.0 2.0 0.00 0.00 0.00 22 1042.5
20181215215530 61 313 2.0 4.0 0.00 0.00 0.00 22 1042.2
20181215214525 61 303 0.0 2.0 0.00 0.00 0.00 24 1042.1
20181215213530 60 318 2.0 7.0 0.00 0.00 0.00 23 1042.3
20181215212540 60 308 1.0 7.0 0.00 0.00 0.00 23 1042.3
20181215211535 60 310 3.0 7.0 0.00 0.00 0.00 24 1042.1
20181215210533 60 295 2.0 7.0 0.00 0.00 0.00 26 1042.1
20181215205533 60 294 2.0 7.0 0.00 0.00 0.00 26 1042.1
20181215204526 59 279 1.0 4.0 0.00 0.00 0.00 26 1042.1
20181215203534 59 278 2.0 4.0 0.00 0.00 0.00 25 1042.1
20181215202524 58 293 4.0 9.0 0.00 0.00 0.00 28 1042.1
20181215201526 57 296 3.0 7.0 0.00 0.00 0.00 23 1042.3
20181215200052 57 313 3.0 7.0 0.00 0.00 0.00 24 1042.3
20181215195053 56 302 3.0 7.0 0.00 0.00 0.00 24 1042.5
20181215194052 56 290 3.0 7.0 0.00 0.00 0.00 26 1042.6
20181215192524 55 288 4.0 9.0 0.00 0.00 0.00 28 1042.7
20181215191535 55 302 2.0 4.0 0.00 0.00 0.00 31 1043.0
20181215190525 54 321 4.0 7.0 0.00 0.00 0.00 28 1043.2
20181215185526 54 325 5.0 12.0 0.00 0.00 0.00 28 1043.4
20181215184054 54 293 2.0 4.0 0.00 0.00 0.00 29 1043.4
20181215183054 53 296 2.0 7.0 0.00 0.00 0.00 30 1043.4
20181215182051 53 292 5.0 12.0 0.00 0.00 0.00 31 1043.7
20181215181045 52 315 4.0 9.0 0.00 0.00 0.00 31 1043.8
20181215180054 52 298 6.0 15.0 0.00 0.00 0.00 31 1043.9
20181215175044 52 289 4.0 12.0 0.00 0.00 0.00 31 1044.1
20181215174045 52 324 5.0 9.0 0.00 0.00 0.00 31 1044.1
20181215173044 51 328 5.0 12.0 0.00 0.00 0.00 31 1044.3
20181215172052 51 331 6.0 9.0 0.00 0.00 0.00 33 1044.2
20181215170532 50 324 3.0 4.0 0.00 0.00 0.00 38 1044.5
20181215165548 50 299 4.0 9.0 0.00 0.00 0.00 39 1044.5
20181215164543 49 317 3.0 7.0 0.00 0.00 0.00 40 1044.5
20181215163541 48 297 4.0 7.0 0.00 0.00 0.00 41 1044.8
20181215162554 47 303 3.0 7.0 0.00 0.00 0.00 42 1044.6
20181215161550 46 308 4.0 7.0 0.00 0.00 0.00 44 1044.8
20181215160549 45 308 4.0 9.0 0.00 0.00 0.00 46 1044.8
20181215155549 44 312 2.0 7.0 0.00 0.00 0.00 48 1044.7
20181215154542 44 283 3.0 7.0 0.00 0.00 0.00 48 1044.3
20181215153548 43 315 3.0 7.0 0.00 0.00 0.00 47 1044.3
20181215152540 43 298 4.0 7.0 0.00 0.00 0.00 49 1044.3
20181215151542 42 311 3.0 7.0 0.00 0.00 0.00 49 1044.1
20181215150539 42 294 4.0 9.0 0.00 0.00 0.00 49 1043.9
20181215145534 42 320 5.0 9.0 0.00 0.00 0.00 48 1043.8
20181215144542 41 300 2.0 7.0 0.00 0.00 0.00 48 1043.7
20181215143532 41 290 3.0 12.0 0.00 0.00 0.00 49 1043.5
20181215142533 41 297 4.0 9.0 0.00 0.00 0.00 46 1043.4
20181215141534 41 296 3.0 7.0 0.00 0.00 0.00 47 1043.2
20181215140524 41 319 3.0 12.0 0.00 0.00 0.00 46 1043.2
20181215135050 41 282 3.0 9.0 0.00 0.00 0.00 45 1043.3
20181215134043 41 277 3.0 7.0 0.00 0.00 0.00 48 1043.2
20181215133044 42 294 2.0 7.0 0.00 0.00 0.00 49 1043.1
20181215132036 42 297 4.0 12.0 0.00 0.00 0.00 49 1043.1
20181215131044 42 277 5.0 12.0 0.00 0.00 0.00 48 1043.0
20181215130036 42 297 4.0 9.0 0.00 0.00 0.00 49 1042.9
20181215125036 42 281 5.0 9.0 0.00 0.00 0.00 46 1042.6
20181215124037 42 271 4.0 9.0 0.00 0.00 0.00 49 1042.3
20181215123029 43 279 3.0 9.0 0.00 0.00 0.00 50 1042.4
20181215122035 43 267 2.0 7.0 0.00 0.01 0.00 50 1042.2
20181215121027 43 300 3.0 9.0 0.00 0.01 0.00 49 1042.1
20181215120028 43 298 4.0 7.0 0.00 0.01 0.00 49 1041.8
20181215114556 43 307 2.0 9.0 0.00 0.01 0.00 49 1041.4
20181215113556 43 291 1.0 7.0 0.00 0.01 0.00 49 1041.4
20181215112555 43 309 3.0 9.0 0.00 0.01 0.00 48 1041.4
20181215111548 43 284 3.0 7.0 0.00 0.01 0.00 49 1041.4
20181215110556 43 286 2.0 7.0 0.00 0.01 0.00 50 1041.4
20181215105549 43 261 4.0 9.0 0.00 0.01 0.00 50 1041.5
20181215104548 43 282 4.0 7.0 0.00 0.01 0.00 50 1041.4
20181215103548 44 265 3.0 7.0 0.00 0.02 0.00 49 1041.4
20181215102538 44 291 4.0 15.0 0.00 0.02 0.00 49 1041.2
20181215101547 44 302 4.0 12.0 0.00 0.02 0.00 48 1041.4
20181215100539 44 290 4.0 7.0 0.00 0.02 0.00 48 1041.4
20181215095540 44 284 4.0 9.0 0.00 0.03 0.00 49 1041.4
20181215094540 45 301 3.0 7.0 0.00 0.03 0.00 48 1041.4
20181215093531 45 268 4.0 9.0 0.00 0.05 0.00 48 1041.5
20181215092539 45 315 3.0 9.0 0.00 0.05 0.00 46 1041.4
20181215091531 46 306 3.0 7.0 0.00 0.06 0.00 45 1041.4
20181215090532 46 311 4.0 9.0 0.00 0.06 0.00 45 1041.2
20181215085532 46 328 4.0 9.0 0.00 0.06 0.00 43 1041.2
20181215084521 46 317 4.0 7.0 0.00 0.06 0.00 44 1041.4
20181215083531 47 298 5.0 9.0 0.00 0.06 0.00 44 1041.2
20181215082051 47 285 5.0 12.0 0.00 0.06 0.00 43 1041.2
20181215081059 47 330 4.0 9.0 0.00 0.06 0.00 42 1041.4
20181215080052 47 301 5.0 12.0 0.00 0.06 0.00 43 1041.1
20181215075052 48 339 4.0 9.0 0.00 0.06 0.00 43 1040.9
20181215074051 48 302 4.0 9.0 0.00 0.07 0.00 43 1041.0
20181215073044 48 306 6.0 12.0 0.00 0.07 0.00 45 1041.0
20181215072051 49 308 5.0 12.0 0.00 0.08 0.00 44 1040.8
20181215071059 49 295 3.0 7.0 0.00 0.08 0.00 44 1040.9
20181215070052 49 310 6.0 15.0 0.00 0.09 0.00 44 1040.8
20181215065059 50 319 4.0 12.0 0.00 0.10 0.00 43 1040.9
20181215064051 50 297 5.0 15.0 0.00 0.12 0.00 43 1041.0
20181215063053 51 308 7.0 15.0 0.00 0.12 0.00 44 1040.7
20181215062051 51 323 7.0 15.0 0.00 0.13 0.00 44 1040.8
20181215061043 51 296 7.0 17.0 0.00 0.14 0.00 45 1041.0
20181215060052 51 302 5.0 9.0 0.00 0.14 0.00 43 1040.8
20181215055043 51 308 8.0 15.0 0.00 0.15 0.14 45 1040.7
20181215054044 51 321 7.0 22.0 0.00 0.16 0.14 49 1040.7
20181215053044 52 321 9.0 17.0 0.00 0.17 0.14 49 1040.7
20181215052042 52 300 7.0 15.0 0.00 0.17 0.14 51 1040.6
20181215051051 51 322 7.0 15.0 0.00 0.18 0.14 53 1040.4
20181215050052 51 329 6.0 12.0 0.00 0.18 0.14 55 1040.4
20181215045042 51 307 6.0 12.0 0.00 0.19 0.14 58 1040.4
20181215044050 50 325 6.0 15.0 0.00 0.19 0.14 62 1040.6